createdAt,value
2018-10-06T00:00:50.423Z,65.59
2018-10-06T00:04:14.864Z,64.46
2018-10-06T00:07:39.312Z,65.62
2018-10-06T00:11:03.760Z,65.66
2018-10-06T00:14:28.331Z,66.96
2018-10-06T00:17:52.766Z,68.07
2018-10-06T00:21:17.301Z,68.80
2018-10-06T00:24:41.748Z,68.34
2018-10-06T00:28:06.649Z,68.54
2018-10-06T00:31:31.138Z,69.32
2018-10-06T00:34:55.548Z,69.03
2018-10-06T00:38:20.092Z,69.57
2018-10-06T00:41:44.526Z,69.29
2018-10-06T00:45:08.973Z,70.24
2018-10-06T00:48:33.415Z,68.99
2018-10-06T00:51:57.853Z,69.50
2018-10-06T00:55:22.257Z,68.78
2018-10-06T00:58:46.669Z,68.05
2018-10-06T01:02:11.091Z,68.67
2018-10-06T01:05:35.508Z,67.89
2018-10-06T01:08:59.960Z,67.24
2018-10-06T01:12:24.363Z,68.33
2018-10-06T01:15:48.829Z,69.07
2018-10-06T01:19:13.241Z,67.50
2018-10-06T01:22:37.719Z,68.70
2018-10-06T01:26:02.216Z,69.53
2018-10-06T01:29:31.114Z,69.52
2018-10-06T01:32:55.577Z,69.97
2018-10-06T01:36:19.984Z,69.91
2018-10-06T01:39:44.450Z,70.62
2018-10-06T01:43:08.889Z,71.12
2018-10-06T01:46:33.332Z,71.29
2018-10-06T01:49:57.982Z,71.48
2018-10-06T01:53:22.375Z,70.47
2018-10-06T01:56:46.811Z,71.08
2018-10-06T02:00:11.282Z,72.25
2018-10-06T02:03:35.677Z,72.71
2018-10-06T02:07:00.104Z,72.83
2018-10-06T02:10:24.582Z,73.00
2018-10-06T02:13:49.038Z,72.86
2018-10-06T02:17:13.459Z,72.02
2018-10-06T02:20:37.934Z,73.01
2018-10-06T02:24:02.419Z,72.89
2018-10-06T02:27:26.848Z,72.51
2018-10-06T02:30:51.271Z,72.91
2018-10-06T02:34:15.686Z,73.48
2018-10-06T02:37:40.137Z,72.83
2018-10-06T02:41:04.583Z,72.78
2018-10-06T02:44:29.022Z,72.28
2018-10-06T02:47:53.516Z,72.15
2018-10-06T02:51:17.939Z,71.87
2018-10-06T02:54:42.399Z,72.75
2018-10-06T02:58:07.064Z,73.28
2018-10-06T03:01:31.485Z,72.75
2018-10-06T03:04:55.947Z,72.93
2018-10-06T03:08:20.401Z,73.27
2018-10-06T03:11:44.811Z,72.40
2018-10-06T03:15:09.213Z,73.66
2018-10-06T03:18:33.683Z,73.60
2018-10-06T03:21:58.129Z,73.87
2018-10-06T03:25:22.534Z,72.52
2018-10-06T03:28:46.964Z,74.00
2018-10-06T03:32:11.375Z,74.63
2018-10-06T03:35:35.814Z,73.78
2018-10-06T03:39:00.260Z,73.11
2018-10-06T03:42:24.675Z,72.77
2018-10-06T03:45:49.104Z,72.32
2018-10-06T03:49:13.546Z,71.97
2018-10-06T03:52:37.989Z,72.04
2018-10-06T03:56:02.612Z,72.37
2018-10-06T03:59:27.061Z,71.32
2018-10-06T04:02:51.473Z,72.61
2018-10-06T04:06:15.904Z,73.19
2018-10-06T04:09:40.351Z,73.46
2018-10-06T04:13:04.729Z,74.02
2018-10-06T04:16:29.143Z,74.28
2018-10-06T04:19:53.736Z,75.04
2018-10-06T04:23:18.194Z,74.28
2018-10-06T04:26:42.620Z,73.87
2018-10-06T04:30:07.668Z,74.87
2018-10-06T04:33:32.120Z,74.92
2018-10-06T04:36:56.537Z,74.69
2018-10-06T04:40:21.012Z,74.55
2018-10-06T04:43:45.401Z,73.42
2018-10-06T04:47:09.873Z,72.81
2018-10-06T04:50:34.386Z,72.88
2018-10-06T04:53:58.837Z,73.25
2018-10-06T04:57:23.269Z,72.92
2018-10-06T05:00:54.501Z,72.78
2018-10-06T05:04:18.923Z,71.67
2018-10-06T05:07:43.384Z,71.68
2018-10-06T05:11:07.806Z,70.93
2018-10-06T05:14:32.224Z,70.38
2018-10-06T05:17:56.679Z,70.58
2018-10-06T05:21:21.172Z,70.01
2018-10-06T05:24:45.823Z,70.94
2018-10-06T05:28:10.230Z,71.68
2018-10-06T05:31:41.290Z,71.66
2018-10-06T05:35:05.867Z,72.27
2018-10-06T05:38:30.288Z,72.17
2018-10-06T05:41:54.814Z,72.40
2018-10-06T05:45:19.220Z,72.14
2018-10-06T05:48:43.626Z,72.27
2018-10-06T05:52:08.236Z,73.08
2018-10-06T05:55:32.749Z,72.81
2018-10-06T05:58:57.378Z,72.72
2018-10-06T06:02:21.779Z,73.44
2018-10-06T06:05:46.226Z,72.11
2018-10-06T06:09:10.662Z,72.11
2018-10-06T06:12:37.553Z,71.61
2018-10-06T06:16:08.089Z,71.77
2018-10-06T06:19:32.497Z,71.12
2018-10-06T06:22:57.066Z,70.77
2018-10-06T06:26:23.100Z,70.54
2018-10-06T06:29:47.768Z,70.01
2018-10-06T06:33:12.148Z,70.17
2018-10-06T06:36:37.306Z,69.59
2018-10-06T06:40:02.091Z,69.40
2018-10-06T06:43:28.578Z,68.79
2018-10-06T06:46:55.255Z,68.78
2018-10-06T06:54:00.720Z,67.81
2018-10-06T06:57:25.173Z,67.11
2018-10-06T07:00:49.565Z,66.68
2018-10-06T07:04:14.084Z,66.32
2018-10-06T07:07:38.582Z,66.25
2018-10-06T07:11:03.162Z,66.32
2018-10-06T07:14:27.572Z,66.52
2018-10-06T07:17:52.049Z,65.55
2018-10-06T07:21:16.443Z,66.20
2018-10-06T07:24:40.927Z,65.61
2018-10-06T07:28:05.431Z,64.78
2018-10-06T07:31:29.872Z,64.93
2018-10-06T07:34:54.277Z,64.42
2018-10-06T07:38:18.654Z,63.94
2018-10-06T07:41:43.127Z,63.43
2018-10-06T07:45:07.628Z,63.21
2018-10-06T07:48:32.062Z,63.19
2018-10-06T07:51:56.525Z,62.52
2018-10-06T07:55:21.107Z,62.74
2018-10-06T07:58:45.556Z,63.00
2018-10-06T08:02:10.004Z,62.31
2018-10-06T08:05:34.452Z,61.75
2018-10-06T08:08:58.864Z,61.24
2018-10-06T08:12:23.344Z,61.33
2018-10-06T08:15:47.761Z,61.02
2018-10-06T08:19:12.216Z,61.56
2018-10-06T08:22:36.660Z,60.50
2018-10-06T08:26:01.094Z,60.67
2018-10-06T08:29:25.526Z,60.46
2018-10-06T08:32:49.988Z,60.72
2018-10-06T08:36:14.544Z,59.36
2018-10-06T08:39:38.982Z,58.99
2018-10-06T08:43:03.420Z,58.56
2018-10-06T08:46:27.853Z,57.93
2018-10-06T08:49:52.309Z,58.59
2018-10-06T08:53:16.767Z,57.17
2018-10-06T08:56:41.180Z,57.87
2018-10-06T09:00:05.740Z,56.36
2018-10-06T09:03:30.159Z,56.81
2018-10-06T09:06:54.614Z,56.10
2018-10-06T09:10:19.047Z,54.95
2018-10-06T09:13:44.356Z,54.51
2018-10-06T09:17:08.838Z,53.20
2018-10-06T09:20:33.256Z,52.64
2018-10-06T09:23:57.718Z,51.98
2018-10-06T09:27:22.154Z,51.60
2018-10-06T09:30:46.569Z,50.11
2018-10-06T09:34:11.038Z,48.44
2018-10-06T09:37:35.531Z,43.81
2018-10-06T09:41:00.135Z,38.93
2018-10-06T09:44:24.561Z,35.65
2018-10-06T09:47:49.027Z,33.75
2018-10-06T09:51:13.459Z,31.25
2018-10-06T09:54:37.927Z,32.90
2018-10-06T09:58:02.326Z,30.44
2018-10-06T10:01:31.933Z,29.86
2018-10-06T10:05:00.431Z,28.37
2018-10-06T10:08:24.934Z,29.39
2018-10-06T10:11:49.391Z,30.17
2018-10-06T10:15:13.861Z,30.36
2018-10-06T10:18:38.245Z,28.30
2018-10-06T10:22:02.743Z,29.22
2018-10-06T10:25:27.123Z,30.41
2018-10-06T10:28:51.592Z,27.27
2018-10-06T10:32:16.048Z,27.83
2018-10-06T10:35:40.526Z,26.42
2018-10-06T10:39:05.953Z,27.03
2018-10-06T10:42:30.380Z,29.56
2018-10-06T10:45:54.875Z,30.06
2018-10-06T10:49:19.363Z,28.55
2018-10-06T10:52:43.843Z,28.12
2018-10-06T10:56:08.283Z,28.02
2018-10-06T10:59:32.785Z,25.94
2018-10-06T11:02:57.132Z,27.53
2018-10-06T11:06:24.803Z,27.33
2018-10-06T11:09:49.311Z,27.03
2018-10-06T11:13:13.742Z,24.70
2018-10-06T11:16:38.206Z,24.62
2018-10-06T11:20:02.599Z,25.71
2018-10-06T11:23:27.012Z,25.92
2018-10-06T11:26:51.390Z,27.41
2018-10-06T11:30:15.909Z,28.17
2018-10-06T11:33:40.306Z,26.42
2018-10-06T11:37:04.726Z,25.83
2018-10-06T11:40:29.124Z,25.76
2018-10-06T11:43:53.584Z,26.40
2018-10-06T11:47:18.021Z,26.45
2018-10-06T11:50:42.430Z,30.99
2018-10-06T11:54:06.957Z,27.71
2018-10-06T11:57:31.393Z,28.85
2018-10-06T12:00:55.804Z,28.00
2018-10-06T12:04:20.221Z,27.30
2018-10-06T12:07:44.624Z,28.45
2018-10-06T12:11:09.134Z,30.00
2018-10-06T12:14:33.605Z,26.90
2018-10-06T12:17:58.035Z,25.95
2018-10-06T12:21:22.420Z,25.88
2018-10-06T12:24:46.933Z,27.82
2018-10-06T12:28:11.324Z,26.96
2018-10-06T12:31:35.699Z,25.57
2018-10-06T12:35:00.158Z,23.41
2018-10-06T12:38:24.569Z,22.93
2018-10-06T12:41:48.974Z,23.24
2018-10-06T12:45:13.398Z,23.01
2018-10-06T12:48:37.795Z,23.33
2018-10-06T12:52:02.228Z,22.02
2018-10-06T12:55:27.784Z,20.60
2018-10-06T12:58:52.226Z,21.46
2018-10-06T13:02:16.651Z,21.62
2018-10-06T13:05:41.104Z,23.23
2018-10-06T13:09:08.077Z,25.83
2018-10-06T13:12:32.495Z,27.31
2018-10-06T13:15:56.976Z,28.29
2018-10-06T13:19:21.381Z,27.43
2018-10-06T13:22:45.809Z,26.59
2018-10-06T13:26:10.265Z,27.42
2018-10-06T13:29:34.661Z,27.51
2018-10-06T13:32:59.155Z,27.86
2018-10-06T13:36:23.603Z,27.92
2018-10-06T13:39:48.153Z,27.67
2018-10-06T13:43:12.609Z,27.56
2018-10-06T13:46:37.178Z,29.85
2018-10-06T13:50:01.581Z,30.12
2018-10-06T13:53:26.010Z,29.85
2018-10-06T13:56:50.864Z,25.26
2018-10-06T14:00:15.298Z,23.82
2018-10-06T14:03:39.695Z,24.31
2018-10-06T14:07:04.240Z,22.65
2018-10-06T14:10:28.683Z,21.84
2018-10-06T14:13:53.213Z,22.21
2018-10-06T14:17:17.635Z,20.57
2018-10-06T14:20:42.097Z,20.06
2018-10-06T14:24:06.487Z,20.33
2018-10-06T14:27:30.885Z,20.35
2018-10-06T14:30:55.342Z,20.33
2018-10-06T14:34:19.737Z,20.28
2018-10-06T14:37:44.160Z,19.92
2018-10-06T14:41:08.614Z,20.10
2018-10-06T14:44:33.120Z,21.27
2018-10-06T14:47:57.558Z,22.38
2018-10-06T14:51:22.021Z,22.74
2018-10-06T14:54:46.475Z,24.54
2018-10-06T14:58:10.896Z,27.31
2018-10-06T15:01:35.314Z,28.76
2018-10-06T15:04:59.722Z,27.94
2018-10-06T15:08:24.140Z,28.52
2018-10-06T15:11:48.570Z,28.94
2018-10-06T15:15:12.924Z,30.24
2018-10-06T15:18:37.348Z,30.53
2018-10-06T15:22:01.808Z,31.15
2018-10-06T15:25:26.228Z,30.67
2018-10-06T15:28:50.613Z,29.73
2018-10-06T15:32:15.152Z,27.38
2018-10-06T15:35:39.574Z,24.50
2018-10-06T15:39:05.020Z,22.61
2018-10-06T15:42:29.425Z,20.59
2018-10-06T15:45:53.813Z,19.39
2018-10-06T15:49:18.241Z,19.15
2018-10-06T15:52:42.596Z,19.57
2018-10-06T15:56:07.054Z,20.86
2018-10-06T15:59:31.488Z,22.69
2018-10-06T16:02:55.934Z,27.08
2018-10-06T16:06:20.428Z,28.19
2018-10-06T16:09:44.869Z,30.76
2018-10-06T16:13:09.344Z,31.62
2018-10-06T16:16:33.785Z,31.86
2018-10-06T16:19:58.204Z,32.33
2018-10-06T16:23:22.629Z,32.77
2018-10-06T16:26:47.177Z,33.30
2018-10-06T16:30:11.558Z,36.18
2018-10-06T16:33:36.006Z,39.75
2018-10-06T16:37:00.443Z,40.19
2018-10-06T16:40:24.945Z,37.79
2018-10-06T16:43:49.375Z,37.00
2018-10-06T16:47:15.567Z,37.47
2018-10-06T16:50:40.042Z,39.05
2018-10-06T16:54:04.446Z,40.32
2018-10-06T16:57:28.868Z,41.50
2018-10-06T17:00:53.320Z,42.78
2018-10-06T17:04:17.729Z,43.53
2018-10-06T17:07:42.208Z,42.33
2018-10-06T17:11:06.633Z,42.72
2018-10-06T17:14:31.077Z,45.23
2018-10-06T17:17:55.594Z,45.61
2018-10-06T17:21:20.008Z,46.00
2018-10-06T17:24:44.450Z,46.68
2018-10-06T17:28:08.899Z,46.59
2018-10-06T17:31:33.286Z,47.00
2018-10-06T17:34:57.784Z,47.14
2018-10-06T17:38:22.212Z,48.24
2018-10-06T17:41:46.645Z,48.42
2018-10-06T17:45:12.050Z,48.61
2018-10-06T17:48:36.535Z,48.50
2018-10-06T17:52:00.942Z,49.61
2018-10-06T17:55:25.355Z,50.28
2018-10-06T17:58:49.811Z,49.39
2018-10-06T18:02:14.274Z,51.20
2018-10-06T18:05:38.659Z,52.58
2018-10-06T18:09:03.119Z,51.85
2018-10-06T18:12:28.026Z,53.26
2018-10-06T18:15:52.504Z,53.02
2018-10-06T18:19:16.941Z,53.63
2018-10-06T18:22:41.503Z,52.89
2018-10-06T18:26:06.035Z,54.42
2018-10-06T18:29:30.498Z,53.61
2018-10-06T18:32:54.973Z,54.83
2018-10-06T18:36:19.429Z,54.42
2018-10-06T18:39:43.886Z,53.87
2018-10-06T18:43:08.434Z,54.29
2018-10-06T18:46:33.158Z,55.63
2018-10-06T18:49:57.630Z,55.62
2018-10-06T18:53:22.040Z,54.85
2018-10-06T18:56:46.470Z,53.34
2018-10-06T19:00:10.948Z,55.38
2018-10-06T19:03:35.469Z,55.60
2018-10-06T19:06:59.830Z,55.25
2018-10-06T19:10:24.275Z,55.77
2018-10-06T19:13:48.695Z,55.62
2018-10-06T19:17:13.200Z,55.57
2018-10-06T19:20:37.613Z,55.40
2018-10-06T19:24:02.123Z,54.23
2018-10-06T19:27:26.585Z,54.18
2018-10-06T19:30:50.993Z,53.62
2018-10-06T19:34:15.378Z,53.46
2018-10-06T19:37:39.760Z,55.22
2018-10-06T19:41:04.218Z,55.69
2018-10-06T19:44:28.641Z,56.46
2018-10-06T19:47:53.166Z,57.31
2018-10-06T19:51:17.537Z,57.05
2018-10-06T19:54:48.408Z,57.96
2018-10-06T19:58:12.926Z,57.64
2018-10-06T20:01:37.546Z,58.32
2018-10-06T20:05:01.982Z,57.85
2018-10-06T20:08:26.407Z,59.46
2018-10-06T20:11:51.567Z,59.66
2018-10-06T20:15:15.990Z,58.89
2018-10-06T20:18:40.402Z,58.08
2018-10-06T20:22:04.815Z,60.06
2018-10-06T20:25:29.283Z,60.09
2018-10-06T20:28:53.865Z,59.87
2018-10-06T20:32:18.408Z,59.31
2018-10-06T20:35:42.818Z,59.87
2018-10-06T20:39:08.555Z,60.55
2018-10-06T20:42:32.995Z,60.71
2018-10-06T20:45:57.474Z,60.45
2018-10-06T20:49:21.989Z,60.38
2018-10-06T20:52:46.417Z,60.97
2018-10-06T20:56:10.831Z,60.58
2018-10-06T20:59:35.293Z,60.45
2018-10-06T21:02:59.710Z,61.32
2018-10-06T21:06:24.129Z,60.86
2018-10-06T21:09:48.602Z,62.13
2018-10-06T21:13:13.031Z,62.39
2018-10-06T21:16:37.834Z,61.96
2018-10-06T21:20:02.247Z,62.20
2018-10-06T21:23:26.685Z,62.78
2018-10-06T21:26:51.176Z,62.97
2018-10-06T21:30:15.629Z,62.57
2018-10-06T21:33:40.040Z,62.79
2018-10-06T21:37:04.543Z,63.31
2018-10-06T21:40:28.999Z,62.84
2018-10-06T21:43:53.414Z,63.32
2018-10-06T21:47:17.806Z,63.67
2018-10-06T21:50:42.258Z,63.36
2018-10-06T21:54:06.582Z,63.87
2018-10-06T21:57:31.108Z,63.97
2018-10-06T22:01:00.779Z,62.94
2018-10-06T22:08:29.581Z,64.48
2018-10-06T22:11:54.227Z,64.93
2018-10-06T22:15:18.753Z,64.69
2018-10-06T22:18:45.955Z,63.70
2018-10-06T22:22:20.695Z,64.08
2018-10-06T22:25:46.839Z,64.36
2018-10-06T22:29:11.483Z,64.44
2018-10-06T22:32:44.576Z,64.64
2018-10-06T22:36:12.795Z,64.25
2018-10-06T22:39:47.919Z,64.05
2018-10-06T22:43:12.428Z,63.17
2018-10-06T22:50:33.263Z,64.27
2018-10-06T22:53:57.694Z,63.89
2018-10-06T22:57:22.084Z,62.90
2018-10-06T23:00:46.498Z,63.79
2018-10-06T23:04:10.924Z,63.41
2018-10-06T23:07:35.322Z,63.83
2018-10-06T23:10:59.810Z,63.85
2018-10-06T23:14:24.312Z,63.97
2018-10-06T23:17:48.709Z,64.50
2018-10-06T23:21:13.132Z,65.04
2018-10-06T23:24:39.403Z,64.42
2018-10-06T23:28:03.952Z,63.83
2018-10-06T23:31:28.430Z,64.26
2018-10-06T23:34:52.849Z,64.19
2018-10-06T23:38:17.251Z,64.27
2018-10-06T23:41:41.657Z,64.29
2018-10-06T23:45:06.443Z,65.25
2018-10-06T23:48:30.866Z,65.50
2018-10-06T23:51:55.270Z,65.45
2018-10-06T23:55:19.688Z,65.10
2018-10-06T23:58:44.109Z,65.56
